Time;durP1;ratioP1;P1;durP2;ratioP2;P2;SDS_P1;SDS_P2;PMS_P1;PMS_P2;Temp;Humidity;BMP_temperature;BMP_pressure;BME280_temperature;BME280_humidity;BME280_pressure;Samples;Min_cycle;Max_cycle;Signal;HPM_P1;HPM_P2
2021/07/23 00:00:09;;;;;;;12.83;9.40;;;;;;;;;;5054813;28;20415;-78
2021/07/23 00:02:35;;;;;;;8.93;7.87;;;;;;;;;;5054534;28;20913;-78
2021/07/23 00:05:01;;;;;;;10.07;8.40;;;;;;;;;;5053894;28;20585;-78
2021/07/23 00:07:27;;;;;;;10.10;8.40;;;;;;;;;;5053445;28;20557;-77
2021/07/23 00:09:53;;;;;;;10.80;8.70;;;;;;;;;;5053393;28;20412;-78
2021/07/23 00:12:19;;;;;;;11.60;9.27;;;;;;;;;;5054600;28;20462;-78
2021/07/23 00:14:45;;;;;;;14.57;8.80;;;;;;;;;;5054234;28;20428;-78
2021/07/23 00:17:11;;;;;;;11.97;8.97;;;;;;;;;;5054549;28;20799;-78
2021/07/23 00:19:37;;;;;;;10.13;8.77;;;;;;;;;;5054412;28;20446;-78
2021/07/23 00:22:03;;;;;;;10.33;8.30;;;;;;;;;;5053174;28;20763;-78
2021/07/23 00:24:31;;;;;;;10.73;8.23;;;;;;;;;;5053892;28;20897;-78
2021/07/23 00:26:57;;;;;;;10.60;8.67;;;;;;;;;;5054445;28;20831;-77
2021/07/23 00:29:23;;;;;;;12.40;8.90;;;;;;;;;;5054272;28;20477;-78
2021/07/23 00:31:48;;;;;;;11.30;9.03;;;;;;;;;;5054001;28;20889;-77
2021/07/23 00:34:14;;;;;;;14.17;8.80;;;;;;;;;;5053700;28;20466;-77
2021/07/23 00:36:40;;;;;;;12.13;8.10;;;;;;;;;;5054329;28;20477;-77
2021/07/23 00:39:06;;;;;;;11.37;9.90;;;;;;;;;;5053981;28;20558;-78
2021/07/23 00:41:32;;;;;;;10.93;8.43;;;;;;;;;;5054080;28;20412;-77
2021/07/23 00:43:58;;;;;;;10.27;8.63;;;;;;;;;;5035809;28;20960;-78
2021/07/23 00:46:27;;;;;;;13.33;9.73;;;;;;;;;;5053945;28;20419;-78
2021/07/23 00:48:53;;;;;;;12.67;9.00;;;;;;;;;;5053983;28;20761;-78
2021/07/23 00:51:19;;;;;;;12.43;8.70;;;;;;;;;;5052653;28;20398;-78
2021/07/23 00:53:45;;;;;;;8.90;7.97;;;;;;;;;;5053463;28;20409;-77
2021/07/23 00:56:11;;;;;;;10.73;8.33;;;;;;;;;;5053393;28;20422;-78
2021/07/23 00:58:37;;;;;;;10.50;8.87;;;;;;;;;;5053165;28;20811;-77
2021/07/23 01:01:03;;;;;;;11.33;9.20;;;;;;;;;;5053893;28;20379;-77
2021/07/23 01:03:30;;;;;;;11.20;8.50;;;;;;;;;;5053215;28;20408;-78
2021/07/23 01:05:59;;;;;;;12.00;8.93;;;;;;;;;;5053278;28;20462;-77
2021/07/23 01:08:25;;;;;;;9.10;7.80;;;;;;;;;;5053301;28;20393;-77
2021/07/23 01:10:51;;;;;;;11.03;9.27;;;;;;;;;;5053457;28;20414;-77
2021/07/23 01:13:17;;;;;;;11.17;8.40;;;;;;;;;;5053009;28;20715;-78
2021/07/23 01:15:43;;;;;;;14.70;8.93;;;;;;;;;;5053314;28;20476;-78
2021/07/23 01:18:09;;;;;;;10.33;8.40;;;;;;;;;;5053141;28;20927;-77
2021/07/23 01:20:35;;;;;;;11.27;9.90;;;;;;;;;;5053187;28;20871;-78
2021/07/23 01:23:02;;;;;;;11.90;8.53;;;;;;;;;;5052119;28;20428;-78
2021/07/23 01:25:29;;;;;;;12.50;9.40;;;;;;;;;;5053379;28;20420;-78
2021/07/23 01:27:56;;;;;;;10.30;7.93;;;;;;;;;;5053333;28;20390;-78
2021/07/23 01:30:23;;;;;;;10.67;8.80;;;;;;;;;;5052996;28;20727;-78
2021/07/23 01:32:49;;;;;;;13.83;8.60;;;;;;;;;;5052855;28;20405;-77
2021/07/23 01:35:15;;;;;;;9.83;8.80;;;;;;;;;;5053298;28;20856;-78
2021/07/23 01:37:42;;;;;;;13.37;9.53;;;;;;;;;;5052009;28;20466;-77
2021/07/23 01:40:08;;;;;;;13.33;9.23;;;;;;;;;;5053346;28;20411;-78
2021/07/23 01:42:35;;;;;;;13.33;8.50;;;;;;;;;;5053012;28;20443;-77
2021/07/23 01:45:01;;;;;;;11.30;9.43;;;;;;;;;;5051718;28;20410;-78
2021/07/23 01:47:27;;;;;;;12.00;9.47;;;;;;;;;;5053191;28;20773;-78
2021/07/23 01:49:53;;;;;;;11.40;9.57;;;;;;;;;;5053138;28;20440;-78
2021/07/23 01:52:19;;;;;;;11.07;9.30;;;;;;;;;;5035073;28;20933;-78
2021/07/23 01:54:45;;;;;;;13.87;10.17;;;;;;;;;;5052614;28;20839;-78
2021/07/23 01:57:11;;;;;;;14.37;9.93;;;;;;;;;;5053245;28;20814;-78
2021/07/23 01:59:37;;;;;;;13.47;10.50;;;;;;;;;;5052929;28;20550;-78
2021/07/23 02:02:03;;;;;;;13.67;9.70;;;;;;;;;;5051622;28;20428;-78
2021/07/23 02:04:29;;;;;;;13.23;9.27;;;;;;;;;;5052310;28;20418;-78
2021/07/23 02:06:56;;;;;;;12.07;9.17;;;;;;;;;;5051682;28;20419;-78
2021/07/23 02:09:22;;;;;;;10.80;9.10;;;;;;;;;;5055869;28;20421;-77
2021/07/23 02:11:48;;;;;;;14.63;9.03;;;;;;;;;;5056688;28;20415;-78
2021/07/23 02:14:15;;;;;;;17.50;9.47;;;;;;;;;;5056453;28;20410;-78
2021/07/23 02:16:40;;;;;;;10.87;8.10;;;;;;;;;;5056471;28;20382;-78
2021/07/23 02:19:06;;;;;;;11.10;9.17;;;;;;;;;;5056483;28;20445;-78
2021/07/23 02:21:36;;;;;;;21.83;9.70;;;;;;;;;;5056665;28;20400;-78
2021/07/23 02:24:02;;;;;;;16.87;8.40;;;;;;;;;;5055420;28;20440;-78
2021/07/23 02:26:28;;;;;;;10.83;9.20;;;;;;;;;;5056711;28;20383;-77
2021/07/23 02:28:54;;;;;;;12.60;9.83;;;;;;;;;;5056442;28;20383;-77
2021/07/23 02:31:20;;;;;;;12.27;8.73;;;;;;;;;;5056541;28;20412;-79
2021/07/23 02:33:46;;;;;;;12.93;8.93;;;;;;;;;;5056184;28;20470;-78
2021/07/23 02:36:15;;;;;;;12.13;9.73;;;;;;;;;;5056621;28;20843;-77
2021/07/23 02:38:41;;;;;;;14.50;9.80;;;;;;;;;;5056487;28;20437;-79
2021/07/23 02:41:07;;;;;;;15.53;10.30;;;;;;;;;;5056814;28;20387;-79
2021/07/23 02:43:33;;;;;;;14.80;9.50;;;;;;;;;;5056925;28;20394;-78
2021/07/23 02:45:59;;;;;;;11.40;9.33;;;;;;;;;;5060778;28;20430;-77
2021/07/23 02:48:25;;;;;;;11.47;9.63;;;;;;;;;;5057618;28;20401;-78
2021/07/23 02:50:52;;;;;;;15.30;10.20;;;;;;;;;;5056427;28;20523;-78
2021/07/23 02:53:18;;;;;;;12.93;10.17;;;;;;;;;;5054521;28;20924;-77
2021/07/23 02:55:45;;;;;;;13.40;10.87;;;;;;;;;;5056022;28;20971;-79
2021/07/23 02:58:11;;;;;;;12.37;9.47;;;;;;;;;;5055922;28;20824;-77
2021/07/23 03:00:37;;;;;;;14.37;10.33;;;;;;;;;;5055921;28;20383;-77
2021/07/23 03:03:04;;;;;;;16.60;10.60;;;;;;;;;;5055405;28;20451;-78
2021/07/23 03:05:30;;;;;;;14.53;10.57;;;;;;;;;;5037931;28;20471;-78
2021/07/23 03:07:56;;;;;;;16.10;10.90;;;;;;;;;;5055739;28;20411;-78
2021/07/23 03:10:22;;;;;;;11.80;9.63;;;;;;;;;;5055845;28;20885;-78
2021/07/23 03:12:48;;;;;;;15.40;9.50;;;;;;;;;;5055357;28;20437;-78
2021/07/23 03:15:14;;;;;;;13.30;10.20;;;;;;;;;;5054080;28;20835;-77
2021/07/23 03:17:40;;;;;;;16.20;10.30;;;;;;;;;;5055494;28;20469;-77
2021/07/23 03:20:07;;;;;;;16.43;10.20;;;;;;;;;;5054850;28;20773;-79
2021/07/23 03:22:33;;;;;;;13.83;10.47;;;;;;;;;;5055675;28;20469;-78
2021/07/23 03:25:02;;;;;;;12.03;9.87;;;;;;;;;;5037450;28;20971;-79
2021/07/23 03:27:28;;;;;;;14.80;9.73;;;;;;;;;;5037924;28;20787;-78
2021/07/23 03:29:54;;;;;;;11.57;10.00;;;;;;;;;;5054022;28;20895;-79
2021/07/23 03:32:20;;;;;;;19.20;11.00;;;;;;;;;;5054209;28;20412;-78
2021/07/23 03:34:46;;;;;;;17.23;10.00;;;;;;;;;;5055275;28;20428;-77
2021/07/23 03:37:12;;;;;;;12.73;9.37;;;;;;;;;;5055421;28;20777;-78
2021/07/23 03:39:38;;;;;;;14.73;10.47;;;;;;;;;;5054984;28;20449;-78
2021/07/23 03:42:04;;;;;;;13.17;10.20;;;;;;;;;;5055052;28;20390;-78
2021/07/23 03:44:30;;;;;;;11.27;9.20;;;;;;;;;;5054972;28;20428;-78
2021/07/23 03:46:56;;;;;;;14.50;10.07;;;;;;;;;;5055183;28;20413;-77
2021/07/23 03:49:23;;;;;;;15.77;11.30;;;;;;;;;;5054908;28;20416;-77
2021/07/23 03:51:49;;;;;;;13.00;10.13;;;;;;;;;;5053580;28;20394;-77
2021/07/23 03:54:15;;;;;;;14.57;10.17;;;;;;;;;;5053212;28;20423;-79
2021/07/23 03:56:41;;;;;;;14.87;10.60;;;;;;;;;;5055059;28;20397;-77
2021/07/23 03:59:06;;;;;;;15.57;11.00;;;;;;;;;;5054798;28;20541;-78
2021/07/23 04:01:32;;;;;;;20.63;12.43;;;;;;;;;;5054692;28;20382;-76
2021/07/23 04:03:58;;;;;;;14.40;10.57;;;;;;;;;;5053171;28;20770;-78
2021/07/23 04:06:27;;;;;;;13.70;10.60;;;;;;;;;;5053582;28;20450;-78
2021/07/23 04:08:54;;;;;;;14.43;11.43;;;;;;;;;;5054780;28;20478;-77
2021/07/23 04:11:27;;;;;;;14.40;10.40;;;;;;;;;;5054524;28;20825;-79
2021/07/23 04:13:53;;;;;;;18.30;11.20;;;;;;;;;;5054330;28;20497;-79
2021/07/23 04:16:19;;;;;;;20.63;11.13;;;;;;;;;;5054670;28;20895;-78
2021/07/23 04:18:45;;;;;;;14.10;10.37;;;;;;;;;;5054474;28;20448;-78
2021/07/23 04:21:11;;;;;;;11.83;10.60;;;;;;;;;;5054502;28;20850;-77
2021/07/23 04:23:37;;;;;;;15.53;11.33;;;;;;;;;;5053103;28;20482;-77
2021/07/23 04:26:04;;;;;;;14.53;10.97;;;;;;;;;;5054022;28;20424;-78
2021/07/23 04:28:30;;;;;;;15.33;10.63;;;;;;;;;;5052990;28;20428;-77
2021/07/23 04:30:56;;;;;;;14.23;10.87;;;;;;;;;;5054070;28;20471;-78
2021/07/23 04:33:22;;;;;;;14.60;10.90;;;;;;;;;;5053372;28;20420;-77
2021/07/23 04:35:48;;;;;;;17.20;10.77;;;;;;;;;;5052650;28;20941;-77
2021/07/23 04:38:14;;;;;;;16.30;11.20;;;;;;;;;;5053896;28;20584;-78
2021/07/23 04:40:40;;;;;;;16.60;11.30;;;;;;;;;;5053847;28;20420;-78
2021/07/23 04:43:06;;;;;;;14.40;11.27;;;;;;;;;;5053660;28;20537;-78
2021/07/23 04:45:31;;;;;;;16.47;11.53;;;;;;;;;;5055735;28;20409;-77
2021/07/23 04:47:57;;;;;;;15.70;11.10;;;;;;;;;;5053744;28;20498;-78
2021/07/23 04:50:23;;;;;;;16.33;11.60;;;;;;;;;;5054035;28;20434;-78
2021/07/23 04:52:49;;;;;;;12.27;10.27;;;;;;;;;;5053537;28;20412;-77
2021/07/23 04:55:18;;;;;;;14.60;11.10;;;;;;;;;;5053786;28;21265;-78
2021/07/23 04:57:46;;;;;;;16.13;10.20;;;;;;;;;;5053771;28;20769;-77
2021/07/23 05:00:12;;;;;;;17.50;11.30;;;;;;;;;;5053611;28;20423;-78
2021/07/23 05:02:41;;;;;;;17.23;10.67;;;;;;;;;;5053573;28;20375;-79
2021/07/23 05:05:08;;;;;;;13.63;11.00;;;;;;;;;;5053336;28;20418;-78
2021/07/23 05:07:34;;;;;;;15.80;11.70;;;;;;;;;;5053473;28;20771;-78
2021/07/23 05:10:00;;;;;;;13.50;10.53;;;;;;;;;;5053453;28;20471;-78
2021/07/23 05:12:26;;;;;;;18.50;12.80;;;;;;;;;;5053643;28;20477;-78
2021/07/23 05:14:52;;;;;;;13.13;11.50;;;;;;;;;;5053050;28;20418;-78
2021/07/23 05:17:19;;;;;;;13.60;11.30;;;;;;;;;;5052185;28;20435;-78
2021/07/23 05:19:45;;;;;;;13.50;11.03;;;;;;;;;;5053323;28;20517;-78
2021/07/23 05:22:12;;;;;;;16.00;11.13;;;;;;;;;;5053128;28;20997;-79
2021/07/23 05:24:38;;;;;;;16.30;11.47;;;;;;;;;;5053015;28;20564;-79
2021/07/23 05:27:04;;;;;;;12.63;10.80;;;;;;;;;;5052314;28;20842;-79
2021/07/23 05:29:30;;;;;;;16.27;11.17;;;;;;;;;;5053320;28;20387;-78
2021/07/23 05:31:55;;;;;;;15.53;11.97;;;;;;;;;;5053171;28;20416;-79
2021/07/23 05:34:22;;;;;;;13.40;11.60;;;;;;;;;;5052539;28;20436;-80
2021/07/23 05:36:48;;;;;;;13.77;11.50;;;;;;;;;;5053335;28;20416;-78
2021/07/23 05:39:14;;;;;;;14.80;10.97;;;;;;;;;;5052042;28;20509;-79
2021/07/23 05:41:40;;;;;;;15.30;10.77;;;;;;;;;;5053084;28;20396;-79
2021/07/23 05:44:06;;;;;;;15.67;11.80;;;;;;;;;;5051404;28;20407;-80
2021/07/23 05:46:35;;;;;;;11.50;9.77;;;;;;;;;;5052933;28;20389;-78
2021/07/23 05:49:01;;;;;;;14.00;10.77;;;;;;;;;;5051846;28;20838;-78
2021/07/23 05:51:27;;;;;;;18.27;12.97;;;;;;;;;;5053186;28;20424;-77
2021/07/23 05:53:53;;;;;;;16.83;11.10;;;;;;;;;;5052779;28;20412;-78
2021/07/23 05:56:19;;;;;;;12.67;11.17;;;;;;;;;;5053004;28;20442;-77
2021/07/23 05:58:45;;;;;;;14.97;12.33;;;;;;;;;;5058679;28;20624;-77
2021/07/23 06:01:10;;;;;;;12.30;10.03;;;;;;;;;;5053371;28;20423;-77
2021/07/23 06:03:37;;;;;;;14.53;11.80;;;;;;;;;;5051668;28;20799;-78
2021/07/23 06:06:04;;;;;;;16.73;10.57;;;;;;;;;;5052657;28;20443;-77
2021/07/23 06:08:30;;;;;;;18.13;10.13;;;;;;;;;;5052727;28;20412;-77
2021/07/23 06:10:56;;;;;;;12.07;10.50;;;;;;;;;;5052871;28;20433;-78
2021/07/23 06:13:22;;;;;;;14.47;11.20;;;;;;;;;;5052439;28;20378;-76
2021/07/23 06:15:49;;;;;;;11.67;10.13;;;;;;;;;;5052530;28;20908;-77
2021/07/23 06:18:15;;;;;;;14.17;10.60;;;;;;;;;;5052607;28;20437;-77
2021/07/23 06:20:41;;;;;;;13.87;11.83;;;;;;;;;;5052521;28;20383;-77
2021/07/23 06:23:07;;;;;;;16.13;9.60;;;;;;;;;;5052606;28;20414;-78
2021/07/23 06:25:33;;;;;;;15.37;11.20;;;;;;;;;;5052694;28;20807;-76
2021/07/23 06:27:59;;;;;;;13.67;10.47;;;;;;;;;;5052845;28;20891;-78
2021/07/23 06:30:25;;;;;;;15.30;10.57;;;;;;;;;;5052669;28;20398;-77
2021/07/23 06:32:51;;;;;;;11.47;10.00;;;;;;;;;;5052432;28;20419;-77
2021/07/23 06:35:17;;;;;;;15.20;9.70;;;;;;;;;;5052713;28;20410;-77
2021/07/23 06:37:43;;;;;;;10.43;9.33;;;;;;;;;;5052789;28;20576;-78
2021/07/23 06:40:09;;;;;;;13.93;11.27;;;;;;;;;;5052711;28;20394;-78
2021/07/23 06:42:36;;;;;;;12.60;10.80;;;;;;;;;;5052375;28;20425;-77
2021/07/23 06:45:03;;;;;;;18.03;10.60;;;;;;;;;;5051021;28;20434;-78
2021/07/23 06:47:29;;;;;;;13.40;10.30;;;;;;;;;;5052423;28;20410;-77
2021/07/23 06:49:55;;;;;;;10.70;9.60;;;;;;;;;;5052714;28;20416;-78
2021/07/23 06:52:21;;;;;;;16.20;11.40;;;;;;;;;;5052491;28;20389;-77
2021/07/23 06:54:50;;;;;;;15.57;11.30;;;;;;;;;;5052368;28;20899;-77
2021/07/23 06:57:16;;;;;;;13.57;10.37;;;;;;;;;;5056225;28;20515;-77
2021/07/23 06:59:41;;;;;;;13.30;10.40;;;;;;;;;;5056061;28;20994;-78
2021/07/23 07:02:08;;;;;;;11.23;9.77;;;;;;;;;;5056109;28;20390;-78
2021/07/23 07:04:34;;;;;;;12.63;10.30;;;;;;;;;;5054226;28;20437;-77
2021/07/23 07:07:01;;;;;;;13.27;11.00;;;;;;;;;;5055966;28;20383;-77
2021/07/23 07:09:27;;;;;;;15.37;11.40;;;;;;;;;;5055874;28;20419;-78
2021/07/23 07:11:58;;;;;;;11.80;9.60;;;;;;;;;;5055990;28;20794;-77
2021/07/23 07:14:25;;;;;;;11.93;9.77;;;;;;;;;;5055244;28;20436;-77
2021/07/23 07:16:51;;;;;;;13.00;10.43;;;;;;;;;;5054578;28;20387;-77
2021/07/23 07:19:17;;;;;;;15.47;11.17;;;;;;;;;;5055451;28;20554;-77
2021/07/23 07:21:49;;;;;;;15.90;11.47;;;;;;;;;;5054427;28;20904;-77
2021/07/23 07:24:16;;;;;;;16.90;10.13;;;;;;;;;;5055471;28;20511;-77
2021/07/23 07:26:42;;;;;;;19.73;10.67;;;;;;;;;;5055922;28;20835;-77
2021/07/23 07:29:08;;;;;;;14.87;10.67;;;;;;;;;;5055408;28;20418;-74
2021/07/23 07:31:34;;;;;;;14.43;9.43;;;;;;;;;;5057372;28;20441;-74
2021/07/23 07:34:00;;;;;;;17.23;11.00;;;;;;;;;;5055750;28;20868;-74
2021/07/23 07:36:26;;;;;;;13.80;10.73;;;;;;;;;;5055788;28;20415;-75
2021/07/23 07:38:52;;;;;;;12.87;10.80;;;;;;;;;;5055436;28;20438;-77
2021/07/23 07:41:19;;;;;;;17.40;10.63;;;;;;;;;;5055192;28;20535;-75
2021/07/23 07:43:45;;;;;;;14.70;11.73;;;;;;;;;;5055069;28;20430;-74
2021/07/23 07:46:11;;;;;;;15.13;10.80;;;;;;;;;;5055514;28;20733;-75
2021/07/23 07:48:37;;;;;;;14.87;12.00;;;;;;;;;;5054018;28;20432;-74
2021/07/23 07:51:03;;;;;;;12.57;10.70;;;;;;;;;;5053969;28;20416;-75
2021/07/23 07:53:29;;;;;;;14.70;9.97;;;;;;;;;;5054545;28;20772;-75
2021/07/23 07:55:55;;;;;;;20.80;11.70;;;;;;;;;;5055059;28;20422;-75
2021/07/23 07:58:21;;;;;;;18.27;11.40;;;;;;;;;;5054870;28;20438;-75
2021/07/23 08:00:47;;;;;;;14.47;10.77;;;;;;;;;;5054894;28;20379;-75
2021/07/23 08:03:13;;;;;;;14.80;11.23;;;;;;;;;;5053186;28;20724;-74
2021/07/23 08:05:39;;;;;;;14.80;10.60;;;;;;;;;;5054532;28;20444;-76
2021/07/23 08:08:08;;;;;;;13.43;10.30;;;;;;;;;;5054821;28;20420;-76
2021/07/23 08:10:36;;;;;;;13.93;11.93;;;;;;;;;;5054838;28;20416;-75
2021/07/23 08:13:03;;;;;;;17.40;11.97;;;;;;;;;;5054700;28;20462;-76
2021/07/23 08:15:29;;;;;;;11.57;10.37;;;;;;;;;;5054422;28;20435;-75
2021/07/23 08:17:55;;;;;;;15.57;11.03;;;;;;;;;;5054673;28;20470;-76
2021/07/23 08:20:21;;;;;;;13.43;10.80;;;;;;;;;;5054424;28;20408;-75
2021/07/23 08:22:47;;;;;;;12.10;10.90;;;;;;;;;;5053916;28;20412;-73
2021/07/23 08:25:13;;;;;;;12.40;10.10;;;;;;;;;;5053828;28;20427;-76
2021/07/23 08:27:39;;;;;;;19.40;11.03;;;;;;;;;;5053967;28;20408;-76
2021/07/23 08:30:05;;;;;;;15.57;10.37;;;;;;;;;;5054254;28;20824;-76
2021/07/23 08:32:36;;;;;;;12.73;9.70;;;;;;;;;;5054351;28;20466;-75
2021/07/23 08:35:03;;;;;;;13.63;10.20;;;;;;;;;;5054146;28;20423;-76
2021/07/23 08:37:28;;;;;;;10.83;8.93;;;;;;;;;;5054248;28;20900;-75
2021/07/23 08:39:54;;;;;;;13.70;10.87;;;;;;;;;;5054122;28;20475;-74
2021/07/23 08:42:27;;;;;;;13.63;11.07;;;;;;;;;;5054110;28;20438;-77
2021/07/23 08:44:53;;;;;;;14.60;10.87;;;;;;;;;;5052415;28;20440;-76
2021/07/23 08:47:20;;;;;;;12.60;10.00;;;;;;;;;;5054253;28;20408;-76
2021/07/23 08:49:46;;;;;;;11.50;9.87;;;;;;;;;;5053940;28;20412;-77
2021/07/23 08:52:12;;;;;;;13.40;11.30;;;;;;;;;;5053597;28;20895;-76
2021/07/23 08:54:38;;;;;;;9.80;8.80;;;;;;;;;;5053311;28;20525;-76
2021/07/23 08:57:07;;;;;;;10.37;9.27;;;;;;;;;;5054092;28;20412;-76
2021/07/23 08:59:33;;;;;;;11.90;9.43;;;;;;;;;;5054023;28;20452;-77
2021/07/23 09:02:06;;;;;;;12.60;8.70;;;;;;;;;;5053770;28;20416;-76
2021/07/23 09:04:35;;;;;;;13.70;9.73;;;;;;;;;;5053563;28;20439;-77
2021/07/23 09:07:13;;;;;;;9.93;8.87;;;;;;;;;;5053757;28;20408;-77
2021/07/23 09:09:39;;;;;;;12.33;9.00;;;;;;;;;;5052240;28;20439;-77
2021/07/23 09:12:05;;;;;;;9.47;8.57;;;;;;;;;;5053410;28;20424;-77
2021/07/23 09:14:31;;;;;;;10.60;8.83;;;;;;;;;;5053131;28;20424;-78
2021/07/23 09:16:58;;;;;;;9.23;8.20;;;;;;;;;;5052548;28;20970;-78
2021/07/23 09:19:24;;;;;;;9.30;8.37;;;;;;;;;;5052527;28;20487;-80
2021/07/23 09:21:57;;;;;;;9.80;8.70;;;;;;;;;;5055130;28;20412;-81
2021/07/23 09:24:23;;;;;;;18.80;9.50;;;;;;;;;;5056682;28;20515;-77
2021/07/23 09:26:50;;;;;;;13.33;9.00;;;;;;;;;;5053392;28;20454;-77
2021/07/23 09:29:16;;;;;;;11.00;8.50;;;;;;;;;;5053245;28;20971;-77
2021/07/23 09:32:01;;;;;;;9.47;8.00;;;;;;;;;;5053200;28;20416;-76
2021/07/23 09:34:31;;;;;;;11.30;8.87;;;;;;;;;;5052315;28;20462;-77
2021/07/23 09:37:10;;;;;;;9.50;8.60;;;;;;;;;;5052806;28;20416;-77
2021/07/23 09:39:36;;;;;;;8.60;7.47;;;;;;;;;;5050775;28;20447;-77
2021/07/23 09:42:02;;;;;;;10.43;9.30;;;;;;;;;;5052804;28;20408;-76
2021/07/23 09:44:28;;;;;;;9.33;8.10;;;;;;;;;;5051425;28;20956;-76
2021/07/23 09:46:54;;;;;;;10.43;8.43;;;;;;;;;;5052968;28;20466;-77
2021/07/23 09:49:27;;;;;;;11.30;9.67;;;;;;;;;;5053124;28;20923;-77
2021/07/23 09:52:03;;;;;;;8.93;8.00;;;;;;;;;;5052931;28;20420;-74
2021/07/23 09:54:29;;;;;;;11.17;7.67;;;;;;;;;;5048422;28;20442;-76
2021/07/23 09:56:55;;;;;;;8.27;7.47;;;;;;;;;;5053133;28;20416;-79
2021/07/23 09:59:28;;;;;;;8.50;7.70;;;;;;;;;;5053024;28;20464;-75
2021/07/23 10:01:59;;;;;;;11.30;8.10;;;;;;;;;;5053048;28;20773;-76
2021/07/23 10:04:37;;;;;;;8.20;7.40;;;;;;;;;;5052332;28;20448;-75
2021/07/23 10:07:29;;;;;;;8.10;7.30;;;;;;;;;;5052849;28;20821;-76
2021/07/23 10:09:55;;;;;;;12.00;7.67;;;;;;;;;;5050108;28;20416;-74
2021/07/23 10:12:21;;;;;;;9.37;8.53;;;;;;;;;;5052787;28;20400;-74
2021/07/23 10:14:48;;;;;;;11.70;8.10;;;;;;;;;;5051297;28;20804;-75
2021/07/23 10:17:14;;;;;;;9.67;8.87;;;;;;;;;;5052814;28;20470;-74
2021/07/23 10:19:40;;;;;;;9.03;8.13;;;;;;;;;;5052701;28;20468;-74
2021/07/23 10:22:07;;;;;;;11.03;8.93;;;;;;;;;;5052667;28;20966;-74
2021/07/23 10:24:36;;;;;;;8.60;7.80;;;;;;;;;;5052230;28;20470;-75
2021/07/23 10:27:09;;;;;;;7.90;7.10;;;;;;;;;;5052905;28;20400;-74
2021/07/23 10:29:49;;;;;;;10.10;9.10;;;;;;;;;;5053062;28;20424;-74
2021/07/23 10:32:27;;;;;;;9.50;8.60;;;;;;;;;;5056534;28;20419;-75
2021/07/23 10:34:54;;;;;;;10.30;9.00;;;;;;;;;;5056074;28;20427;-74
2021/07/23 10:37:29;;;;;;;11.03;9.20;;;;;;;;;;5056518;28;20923;-74
2021/07/23 10:40:07;;;;;;;10.10;9.10;;;;;;;;;;5056602;28;20455;-75
2021/07/23 10:42:34;;;;;;;8.83;8.03;;;;;;;;;;5056286;28;20427;-75
2021/07/23 10:45:00;;;;;;;9.40;8.60;;;;;;;;;;5056172;28;20427;-74
2021/07/23 10:47:36;;;;;;;9.43;7.60;;;;;;;;;;5056349;28;20450;-74
2021/07/23 10:50:03;;;;;;;8.87;8.07;;;;;;;;;;5056253;28;20396;-74
2021/07/23 10:52:36;;;;;;;10.67;9.07;;;;;;;;;;5054932;28;20428;-74
2021/07/23 10:55:13;;;;;;;12.50;9.60;;;;;;;;;;5055994;28;20435;-75
2021/07/23 10:57:39;;;;;;;12.63;9.77;;;;;;;;;;5056716;28;20412;-76
2021/07/23 11:00:06;;;;;;;11.50;10.40;;;;;;;;;;5056136;28;20892;-76
2021/07/23 11:02:32;;;;;;;9.20;8.27;;;;;;;;;;5055001;28;20451;-73
2021/07/23 11:05:11;;;;;;;12.63;10.13;;;;;;;;;;5055351;28;20459;-77
2021/07/23 11:07:38;;;;;;;10.20;8.83;;;;;;;;;;5054919;28;20485;-77
2021/07/23 11:10:05;;;;;;;12.40;9.50;;;;;;;;;;5054589;28;20924;-77
2021/07/23 11:12:32;;;;;;;12.13;9.93;;;;;;;;;;5056007;28;20745;-75
2021/07/23 11:15:02;;;;;;;9.20;8.30;;;;;;;;;;5055572;28;20443;-77
2021/07/23 11:17:28;;;;;;;12.63;9.37;;;;;;;;;;5055898;28;20439;-76
2021/07/23 11:19:55;;;;;;;12.07;9.73;;;;;;;;;;5054588;28;20550;-75
2021/07/23 11:22:22;;;;;;;12.90;11.63;;;;;;;;;;5056052;28;20920;-75
2021/07/23 11:24:49;;;;;;;10.97;10.00;;;;;;;;;;5055125;28;20872;-76
2021/07/23 11:27:25;;;;;;;11.57;8.57;;;;;;;;;;5054260;28;20424;-79
2021/07/23 11:29:52;;;;;;;11.87;10.67;;;;;;;;;;5055374;28;20419;-77
2021/07/23 11:32:18;;;;;;;10.37;9.37;;;;;;;;;;5055424;28;20416;-74
2021/07/23 11:34:45;;;;;;;10.53;9.23;;;;;;;;;;5054759;28;20431;-75
2021/07/23 11:37:23;;;;;;;10.33;8.50;;;;;;;;;;5055286;28;20814;-74
2021/07/23 11:40:03;;;;;;;9.93;8.93;;;;;;;;;;5055288;28;20513;-74
2021/07/23 11:42:30;;;;;;;11.70;9.40;;;;;;;;;;5054709;28;20519;-76
2021/07/23 11:44:57;;;;;;;8.30;6.80;;;;;;;;;;5054851;28;20432;-76
2021/07/23 11:47:27;;;;;;;8.30;7.40;;;;;;;;;;5055108;28;20759;-76
2021/07/23 11:49:53;;;;;;;8.50;7.70;;;;;;;;;;5055039;28;20411;-74
2021/07/23 11:52:22;;;;;;;9.13;7.07;;;;;;;;;;5055202;28;20853;-74
2021/07/23 11:54:54;;;;;;;10.10;8.20;;;;;;;;;;5054645;28;20428;-76
2021/07/23 11:57:20;;;;;;;8.90;8.17;;;;;;;;;;5053843;28;20428;-77
2021/07/23 11:59:46;;;;;;;8.50;7.70;;;;;;;;;;5054998;28;20600;-77
2021/07/23 12:02:14;;;;;;;8.70;7.80;;;;;;;;;;5054986;28;20443;-77
2021/07/23 12:04:41;;;;;;;9.97;8.73;;;;;;;;;;5054407;28;20446;-76
2021/07/23 12:07:07;;;;;;;9.57;8.57;;;;;;;;;;5054537;28;20404;-77
2021/07/23 12:09:33;;;;;;;11.90;8.30;;;;;;;;;;5054673;28;20438;-76
2021/07/23 12:12:00;;;;;;;10.43;9.43;;;;;;;;;;5054728;28;20490;-75
2021/07/23 12:14:25;;;;;;;9.20;8.03;;;;;;;;;;5054257;28;20896;-76
2021/07/23 12:16:55;;;;;;;11.07;7.70;;;;;;;;;;5054594;28;20503;-75
2021/07/23 12:19:21;;;;;;;8.97;7.73;;;;;;;;;;5054136;28;20471;-76
2021/07/23 12:21:47;;;;;;;9.10;8.20;;;;;;;;;;5054602;28;20486;-78
2021/07/23 12:24:13;;;;;;;9.27;7.60;;;;;;;;;;5054117;28;20411;-76
2021/07/23 12:26:40;;;;;;;10.83;8.00;;;;;;;;;;5052676;28;20443;-75
2021/07/23 12:29:07;;;;;;;7.87;7.17;;;;;;;;;;5053400;28;20774;-77
2021/07/23 12:31:33;;;;;;;13.60;8.80;;;;;;;;;;5053800;28;20745;-77
2021/07/23 12:34:06;;;;;;;10.90;9.00;;;;;;;;;;5053878;28;20420;-77
2021/07/23 12:36:40;;;;;;;10.23;8.97;;;;;;;;;;5055491;28;20829;-78
2021/07/23 12:39:06;;;;;;;8.50;7.67;;;;;;;;;;5053719;28;20494;-76
2021/07/23 12:41:32;;;;;;;6.83;6.13;;;;;;;;;;5053969;28;20517;-74
2021/07/23 12:44:04;;;;;;;11.00;8.37;;;;;;;;;;5053680;28;20418;-75
2021/07/23 12:46:31;;;;;;;9.63;7.00;;;;;;;;;;5053523;28;20404;-76
2021/07/23 12:49:07;;;;;;;10.83;7.27;;;;;;;;;;5053880;28;20436;-76
2021/07/23 12:51:33;;;;;;;6.93;6.33;;;;;;;;;;5053756;28;20412;-76
2021/07/23 12:53:59;;;;;;;8.60;7.43;;;;;;;;;;5051953;28;20756;-76
2021/07/23 12:56:32;;;;;;;8.00;7.20;;;;;;;;;;5052905;28;20416;-76
2021/07/23 12:58:58;;;;;;;9.77;6.17;;;;;;;;;;5053006;28;20567;-75
2021/07/23 13:01:24;;;;;;;7.60;6.90;;;;;;;;;;5053499;28;20452;-75
2021/07/23 13:03:50;;;;;;;8.53;7.13;;;;;;;;;;5053054;28;20780;-76
2021/07/23 13:06:19;;;;;;;9.00;7.33;;;;;;;;;;5053716;28;20849;-75
2021/07/23 13:08:45;;;;;;;10.60;7.73;;;;;;;;;;5053595;28;20418;-76
2021/07/23 13:11:12;;;;;;;9.10;8.20;;;;;;;;;;5053597;28;20506;-76
2021/07/23 13:13:41;;;;;;;9.23;6.87;;;;;;;;;;5053163;28;20396;-75
2021/07/23 13:16:08;;;;;;;10.53;7.27;;;;;;;;;;5053313;28;20423;-76
2021/07/23 13:18:34;;;;;;;7.73;6.97;;;;;;;;;;5053213;28;20512;-75
2021/07/23 13:21:01;;;;;;;10.80;7.03;;;;;;;;;;5053333;28;20419;-75
2021/07/23 13:23:27;;;;;;;9.87;8.13;;;;;;;;;;5053013;28;20436;-75
2021/07/23 13:25:54;;;;;;;7.07;6.43;;;;;;;;;;5051890;28;21037;-75
2021/07/23 13:28:20;;;;;;;7.80;6.50;;;;;;;;;;5052999;28;20754;-76
2021/07/23 13:30:46;;;;;;;8.97;5.83;;;;;;;;;;5052864;28;20530;-75
2021/07/23 13:33:12;;;;;;;9.10;7.70;;;;;;;;;;5051758;28;20439;-74
2021/07/23 13:35:38;;;;;;;7.40;6.70;;;;;;;;;;5052931;28;20522;-75
2021/07/23 13:38:08;;;;;;;7.97;7.17;;;;;;;;;;5052399;28;20466;-75
2021/07/23 13:40:36;;;;;;;11.90;7.40;;;;;;;;;;5052810;28;20487;-76
2021/07/23 13:43:04;;;;;;;8.50;7.70;;;;;;;;;;5052852;28;20969;-75
2021/07/23 13:45:32;;;;;;;9.27;6.87;;;;;;;;;;5052997;28;20933;-76
2021/07/23 13:47:58;;;;;;;8.73;7.83;;;;;;;;;;5053075;28;20483;-75
2021/07/23 13:50:24;;;;;;;16.60;8.10;;;;;;;;;;5053014;28;20458;-75
2021/07/23 13:52:52;;;;;;;7.63;6.83;;;;;;;;;;5052627;28;20775;-75
2021/07/23 13:55:18;;;;;;;8.23;7.27;;;;;;;;;;5052225;28;21007;-76
2021/07/23 13:57:44;;;;;;;9.67;7.47;;;;;;;;;;5052587;28;20492;-76
2021/07/23 14:00:10;;;;;;;8.10;7.03;;;;;;;;;;5054127;28;20463;-76
2021/07/23 14:02:40;;;;;;;8.03;7.17;;;;;;;;;;5061789;28;20407;-76
2021/07/23 14:05:07;;;;;;;6.80;6.10;;;;;;;;;;5061655;28;20443;-76
2021/07/23 14:07:33;;;;;;;7.83;7.13;;;;;;;;;;5077102;28;20414;-76
2021/07/23 14:10:00;;;;;;;10.53;7.60;;;;;;;;;;5076674;28;20414;-75
2021/07/23 14:12:27;;;;;;;11.90;8.87;;;;;;;;;;5076875;28;20407;-75
2021/07/23 14:14:53;;;;;;;6.67;6.00;;;;;;;;;;5071079;28;20439;-74
2021/07/23 14:17:19;;;;;;;8.53;7.20;;;;;;;;;;5066340;28;20775;-75
2021/07/23 14:19:45;;;;;;;7.63;6.07;;;;;;;;;;5065548;28;20457;-76
2021/07/23 14:22:11;;;;;;;6.40;5.90;;;;;;;;;;5065924;28;20732;-77
2021/07/23 14:24:37;;;;;;;9.13;6.30;;;;;;;;;;5055990;28;20442;-77
2021/07/23 14:27:03;;;;;;;8.63;6.90;;;;;;;;;;5056474;28;20408;-77